Time;durP1;ratioP1;P1;durP2;ratioP2;P2;SDS_P1;SDS_P2;PMS_P1;PMS_P2;Temp;Humidity;BMP_temperature;BMP_pressure;BME280_temperature;BME280_humidity;BME280_pressure;Samples;Min_cycle;Max_cycle;Signal;HPM_P1;HPM_P2
2022/07/08 00:00:46;;;;;;;0.10;0.10;;;;;;;22.12;52.66;102581.78;5131519;28;20545;-37
2022/07/08 00:03:11;;;;;;;0.10;0.10;;;;;;;22.13;52.58;102582.63;5129410;28;20074;-38
2022/07/08 00:05:38;;;;;;;0.10;0.10;;;;;;;22.12;52.60;102584.56;5131104;28;20247;-37
2022/07/08 00:08:04;;;;;;;0.10;0.10;;;;;;;22.13;52.52;102579.84;5130492;28;20093;-38
2022/07/08 00:10:29;;;;;;;0.10;0.10;;;;;;;22.13;52.49;102580.69;5130880;28;20489;-38
2022/07/08 00:12:55;;;;;;;0.10;0.10;;;;;;;22.12;52.67;102584.56;5131562;28;20112;-38
2022/07/08 00:15:21;;;;;;;0.10;0.10;;;;;;;22.12;52.65;102583.69;5130396;27;20048;-39
2022/07/08 00:17:47;;;;;;;0.10;0.10;;;;;;;22.12;52.60;102581.78;5131815;28;20091;-39
2022/07/08 00:20:13;;;;;;;0.10;0.10;;;;;;;22.12;52.62;102583.69;5113646;28;20077;-37
2022/07/08 00:22:38;;;;;;;0.10;0.10;;;;;;;22.12;52.56;102581.78;5131826;28;20035;-37
2022/07/08 00:25:04;;;;;;;0.10;0.10;;;;;;;22.12;52.48;102579.00;5130627;28;20046;-37
2022/07/08 00:27:30;;;;;;;0.10;0.10;;;;;;;22.13;52.67;102586.22;5130964;28;20070;-37
2022/07/08 00:29:56;;;;;;;0.10;0.10;;;;;;;22.11;52.34;102585.63;5112905;28;20117;-37
2022/07/08 00:32:22;;;;;;;0.10;0.10;;;;;;;22.13;52.61;102585.41;5130554;28;20039;-37
2022/07/08 00:34:49;;;;;;;0.10;0.10;;;;;;;22.11;52.34;102580.09;5130451;28;20055;-37
2022/07/08 00:37:15;;;;;;;0.10;0.10;;;;;;;22.12;52.61;102581.78;5111658;28;20078;-39
2022/07/08 00:39:40;;;;;;;0.10;0.10;;;;;;;22.13;52.71;102585.41;5112564;28;20043;-38
2022/07/08 00:42:06;;;;;;;0.10;0.10;;;;;;;22.12;52.56;102581.78;5129175;28;20039;-39
2022/07/08 00:44:32;;;;;;;0.10;0.10;;;;;;;22.12;52.56;102579.00;5130324;27;20039;-37
2022/07/08 00:46:58;;;;;;;0.10;0.10;;;;;;;22.12;52.52;102575.38;5129571;27;20138;-39
2022/07/08 00:49:24;;;;;;;0.10;0.10;;;;;;;22.12;52.68;102580.94;5131446;28;20040;-38
2022/07/08 00:51:49;;;;;;;0.10;0.10;;;;;;;22.12;52.96;102584.56;5132122;28;20058;-38
2022/07/08 00:54:18;;;;;;;0.10;0.10;;;;;;;22.11;52.61;102588.41;5112890;28;20488;-38
2022/07/08 00:56:43;;;;;;;0.10;0.10;;;;;;;22.10;52.66;102586.72;5111595;28;20276;-39
2022/07/08 00:59:09;;;;;;;0.10;0.10;;;;;;;22.10;52.68;102585.88;5131459;28;20066;-38
2022/07/08 01:01:36;;;;;;;0.10;0.10;;;;;;;22.10;52.59;102592.25;5113298;28;20516;-37
2022/07/08 01:04:02;;;;;;;0.10;0.10;;;;;;;22.13;52.67;102593.72;5095729;28;20442;-39
2022/07/08 01:06:28;;;;;;;0.10;0.10;;;;;;;22.11;52.60;102593.97;5128575;28;20055;-38
2022/07/08 01:08:54;;;;;;;0.10;0.10;;;;;;;22.10;52.59;102591.44;5130942;28;20484;-38
2022/07/08 01:11:19;;;;;;;0.10;0.10;;;;;;;22.11;52.61;102593.97;5129058;28;20043;-38
2022/07/08 01:13:46;;;;;;;0.10;0.10;;;;;;;22.12;52.59;102595.66;5131381;28;20304;-38
2022/07/08 01:16:12;;;;;;;0.10;0.10;;;;;;;22.11;52.65;102602.28;5130815;28;20108;-39
2022/07/08 01:18:39;;;;;;;0.10;0.10;;;;;;;22.12;52.50;102597.56;5130131;28;20043;-38
2022/07/08 01:21:05;;;;;;;0.10;0.10;;;;;;;22.13;52.51;102604.81;5125598;28;20092;-39
2022/07/08 01:23:31;;;;;;;0.10;0.10;;;;;;;22.09;52.52;102601.69;5130262;28;20047;-37
2022/07/08 01:25:57;;;;;;;0.10;0.10;;;;;;;22.10;52.68;102606.13;5129725;28;20063;-38
2022/07/08 01:28:23;;;;;;;0.10;0.10;;;;;;;22.09;52.59;102607.25;5129456;28;20055;-38
2022/07/08 01:30:48;;;;;;;0.10;0.10;;;;;;;22.11;52.59;102607.00;5129334;28;20516;-39
2022/07/08 01:33:14;;;;;;;0.10;0.10;;;;;;;22.11;52.63;102607.00;5131233;28;20530;-38
2022/07/08 01:35:39;;;;;;;0.10;0.10;;;;;;;22.09;52.63;102601.69;5130887;28;20050;-38
2022/07/08 01:38:05;;;;;;;0.10;0.10;;;;;;;22.11;52.54;102604.22;5128370;28;20039;-37
2022/07/08 01:40:31;;;;;;;0.10;0.10;;;;;;;22.13;52.50;102607.59;5129885;28;20039;-38
2022/07/08 01:42:56;;;;;;;0.10;0.10;;;;;;;22.11;52.55;102602.28;5130694;27;20075;-37
2022/07/08 01:45:22;;;;;;;0.10;0.10;;;;;;;22.11;52.59;102607.84;5130128;27;20381;-38
2022/07/08 01:47:48;;;;;;;0.10;0.10;;;;;;;22.10;52.62;102597.81;5127302;28;20051;-38
2022/07/08 01:50:13;;;;;;;0.10;0.10;;;;;;;22.11;52.57;102590.34;5130568;28;20087;-38
2022/07/08 01:52:39;;;;;;;0.10;0.10;;;;;;;22.12;52.41;102597.56;5128516;28;20050;-38
2022/07/08 01:55:05;;;;;;;0.10;0.10;;;;;;;22.10;52.60;102600.59;5129737;28;20461;-39
2022/07/08 01:57:31;;;;;;;0.10;0.10;;;;;;;22.10;52.58;102599.75;5128654;28;20078;-38
2022/07/08 01:59:57;;;;;;;0.10;0.10;;;;;;;22.11;52.55;102604.22;5130564;28;20046;-38
2022/07/08 02:02:23;;;;;;;0.10;0.10;;;;;;;22.12;52.51;102600.34;5129466;28;20039;-38
2022/07/08 02:04:48;;;;;;;0.10;0.10;;;;;;;22.11;52.50;102595.91;5110940;28;20099;-39
2022/07/08 02:07:15;;;;;;;0.10;0.10;;;;;;;22.12;52.47;102600.34;5129813;28;20084;-39
2022/07/08 02:09:41;;;;;;;0.10;0.10;;;;;;;22.12;52.61;102594.78;5129635;27;20100;-37
2022/07/08 02:12:23;;;;;;;0.10;0.10;;;;;;;22.11;52.66;102593.13;5111869;28;20587;-38
2022/07/08 02:14:51;;;;;;;0.10;0.10;;;;;;;22.11;52.50;102593.13;5128585;27;20578;-37
2022/07/08 02:17:19;;;;;;;0.10;0.10;;;;;;;22.09;52.53;102596.16;5110177;28;20493;-37
2022/07/08 02:19:45;;;;;;;0.10;0.10;;;;;;;22.11;52.45;102593.97;5129869;28;20071;-38
2022/07/08 02:22:11;;;;;;;0.10;0.10;;;;;;;22.10;52.66;102597.81;5111714;28;20042;-36
2022/07/08 02:24:37;;;;;;;0.10;0.10;;;;;;;22.11;52.59;102595.91;5128743;28;20122;-38
2022/07/08 02:27:03;;;;;;;0.10;0.10;;;;;;;22.10;52.54;102592.25;5127306;28;20071;-36
2022/07/08 02:29:29;;;;;;;0.10;0.10;;;;;;;22.11;52.55;102595.91;5093208;28;20079;-37
2022/07/08 02:31:55;;;;;;;0.10;0.10;;;;;;;22.11;52.49;102593.13;5128226;28;20055;-38
2022/07/08 02:34:21;;;;;;;0.10;0.10;;;;;;;22.11;52.61;102593.13;5128011;28;20213;-37
2022/07/08 02:36:46;;;;;;;0.10;0.10;;;;;;;22.09;52.52;102595.31;5128551;28;20066;-37
2022/07/08 02:39:13;;;;;;;0.10;0.10;;;;;;;22.10;52.46;102585.88;5129687;28;20074;-37
2022/07/08 02:41:39;;;;;;;0.10;0.10;;;;;;;22.10;52.58;102581.16;5130450;28;20086;-38
2022/07/08 02:44:06;;;;;;;0.10;0.10;;;;;;;22.11;52.52;102593.13;5109811;27;20070;-36
2022/07/08 02:46:32;;;;;;;0.10;0.10;;;;;;;22.12;52.45;102586.47;5110034;28;20130;-39
2022/07/08 02:48:58;;;;;;;0.10;0.10;;;;;;;22.12;52.62;102594.78;5130292;28;20035;-38
2022/07/08 02:51:24;;;;;;;0.10;0.10;;;;;;;22.10;52.52;102592.25;5129934;28;20047;-38
2022/07/08 02:53:49;;;;;;;0.10;0.10;;;;;;;22.10;52.67;102595.03;5129952;28;20205;-37
2022/07/08 02:56:15;;;;;;;0.10;0.10;;;;;;;22.10;52.52;102596.97;5127364;28;20047;-37
2022/07/08 02:58:41;;;;;;;0.10;0.10;;;;;;;22.10;52.54;102597.81;5129501;28;20218;-38
2022/07/08 03:01:07;;;;;;;0.10;0.10;;;;;;;22.13;52.45;102596.50;5094312;28;20066;-38
2022/07/08 03:03:32;;;;;;;0.10;0.10;;;;;;;22.11;52.45;102596.75;5130413;28;20049;-36
2022/07/08 03:05:58;;;;;;;0.10;0.10;;;;;;;22.12;52.58;102605.91;5130443;28;20066;-38
2022/07/08 03:08:24;;;;;;;0.10;0.10;;;;;;;22.11;52.49;102601.44;5126381;28;20099;-39
2022/07/08 03:10:49;;;;;;;0.10;0.10;;;;;;;22.11;52.53;102605.06;5128213;28;20039;-38
2022/07/08 03:13:15;;;;;;;0.10;0.10;;;;;;;22.12;52.52;102608.66;5127720;28;20378;-37
2022/07/08 03:15:41;;;;;;;0.10;0.10;;;;;;;22.11;52.57;102612.56;5130346;28;20104;-38
2022/07/08 03:18:07;;;;;;;0.10;0.10;;;;;;;22.11;52.63;102612.56;5128043;28;20473;-37
2022/07/08 03:20:33;;;;;;;0.10;0.10;;;;;;;22.11;52.53;102609.78;5110936;28;20485;-38
2022/07/08 03:22:59;;;;;;;0.10;0.10;;;;;;;22.11;52.47;102616.16;5094139;28;20035;-38
2022/07/08 03:25:24;;;;;;;0.10;0.10;;;;;;;22.11;52.52;102612.56;5110804;27;20043;-39
2022/07/08 03:27:50;;;;;;;0.10;0.10;;;;;;;22.09;52.52;102618.34;5111752;28;20084;-36
2022/07/08 03:30:16;;;;;;;0.10;0.10;;;;;;;22.11;52.58;102618.09;5132195;28;20043;-39
2022/07/08 03:32:41;;;;;;;0.10;0.10;;;;;;;22.11;52.46;102605.06;5131663;28;20100;-37
2022/07/08 03:35:09;;;;;;;0.10;0.10;;;;;;;22.10;52.55;102608.06;5130910;28;20400;-40
2022/07/08 03:37:34;;;;;;;0.10;0.10;;;;;;;22.10;52.45;102603.34;5112507;28;20063;-38
2022/07/08 03:41:19;;;;;;;0.10;0.10;;;;;;;22.10;52.45;102610.84;5131667;28;20046;-36
2022/07/08 03:42:45;;;;;;;0.10;0.10;;;;;;;22.10;52.42;102606.13;5116368;28;20122;-37
2022/07/08 03:45:11;;;;;;;0.10;0.10;;;;;;;22.11;52.52;102609.78;5133965;27;20043;-37
2022/07/08 03:47:37;;;;;;;0.10;0.10;;;;;;;22.10;52.58;102603.34;5130238;28;20191;-37
2022/07/08 03:50:03;;;;;;;0.10;0.10;;;;;;;22.09;52.48;102623.88;5133210;28;20039;-38
2022/07/08 03:52:29;;;;;;;0.10;0.10;;;;;;;22.09;52.53;102614.72;5132947;28;20075;-38
2022/07/08 03:54:54;;;;;;;0.10;0.10;;;;;;;22.09;52.50;102618.34;5133483;28;20070;-39
2022/07/08 03:57:20;;;;;;;0.10;0.10;;;;;;;22.10;52.58;102620.00;5131365;28;20084;-39
2022/07/08 03:59:46;;;;;;;0.10;0.10;;;;;;;22.09;52.45;102623.88;5114140;28;20047;-37
2022/07/08 04:02:11;;;;;;;0.10;0.10;;;;;;;22.09;52.46;102625.81;5132583;28;20046;-37
2022/07/08 04:04:37;;;;;;;0.10;0.10;;;;;;;22.09;52.50;102629.44;5132406;28;20461;-37
2022/07/08 04:07:03;;;;;;;0.10;0.10;;;;;;;22.09;52.56;102636.94;5130295;28;20393;-37
2022/07/08 04:09:28;;;;;;;0.10;0.10;;;;;;;22.10;52.45;102636.66;5132697;28;20462;-38
2022/07/08 04:11:54;;;;;;;0.10;0.10;;;;;;;22.09;52.13;102628.59;5130237;28;20067;-37
2022/07/08 04:14:20;;;;;;;0.10;0.10;;;;;;;22.10;52.53;102636.66;5131936;28;20378;-38
2022/07/08 04:16:46;;;;;;;0.10;0.10;;;;;;;22.10;52.53;102633.03;5128735;28;20074;-37
2022/07/08 04:19:11;;;;;;;0.10;0.10;;;;;;;22.11;52.52;102634.75;5114287;28;20038;-37
2022/07/08 04:21:37;;;;;;;0.10;0.10;;;;;;;22.11;52.43;102634.75;5133391;28;20066;-37
2022/07/08 04:24:03;;;;;;;0.10;0.10;;;;;;;22.10;52.55;102633.03;5113702;28;20047;-39
2022/07/08 04:26:31;;;;;;;0.10;0.10;;;;;;;22.11;52.54;102635.59;5126428;28;20043;-38
2022/07/08 04:28:58;;;;;;;0.10;0.10;;;;;;;22.09;52.57;102636.94;5130962;28;20074;-38
2022/07/08 04:31:24;;;;;;;0.10;0.10;;;;;;;22.09;52.42;102637.75;5131101;28;20089;-38
2022/07/08 04:33:50;;;;;;;0.10;0.10;;;;;;;22.09;52.63;102635.00;5131373;28;20147;-38
2022/07/08 04:36:16;;;;;;;0.10;0.10;;;;;;;22.08;52.45;102638.88;5130915;28;20058;-39
2022/07/08 04:38:41;;;;;;;0.10;0.10;;;;;;;22.10;52.44;102641.38;5130622;27;20043;-38
2022/07/08 04:41:07;;;;;;;0.10;0.10;;;;;;;22.10;52.50;102635.81;5131948;28;20043;-39
2022/07/08 04:43:33;;;;;;;0.10;0.10;;;;;;;22.08;52.54;102640.81;5132027;27;20389;-38
2022/07/08 04:45:58;;;;;;;0.10;0.10;;;;;;;22.08;52.37;102638.88;5129906;28;20035;-39
2022/07/08 04:48:24;;;;;;;0.10;0.10;;;;;;;22.11;52.51;102645.84;5129333;28;20043;-38
2022/07/08 04:50:50;;;;;;;0.10;0.10;;;;;;;22.10;52.44;102647.75;5130975;28;20058;-38
2022/07/08 04:53:16;;;;;;;0.10;0.10;;;;;;;22.10;52.51;102644.97;5113101;28;20082;-37
2022/07/08 04:55:41;;;;;;;0.10;0.10;;;;;;;22.09;52.60;102648.03;5130394;28;20051;-38
2022/07/08 04:58:07;;;;;;;0.10;0.10;;;;;;;22.09;52.47;102654.41;5131502;28;20044;-39
2022/07/08 05:00:33;;;;;;;0.10;0.10;;;;;;;22.09;52.56;102667.44;5130418;28;20091;-38
2022/07/08 05:02:59;;;;;;;0.10;0.10;;;;;;;22.09;52.47;102659.97;5112532;28;20039;-38
2022/07/08 05:05:26;;;;;;;0.10;0.10;;;;;;;22.09;52.53;102662.72;5112797;28;20072;-38
2022/07/08 05:07:52;;;;;;;0.10;0.10;;;;;;;22.09;52.48;102668.28;5130458;28;20075;-38
2022/07/08 05:10:19;;;;;;;0.10;0.10;;;;;;;22.09;52.46;102665.50;5112025;28;20051;-37
2022/07/08 05:12:45;;;;;;;0.10;0.10;;;;;;;22.10;52.51;102666.34;5130239;28;20081;-39
2022/07/08 05:15:11;;;;;;;0.10;0.10;;;;;;;22.10;52.20;102672.72;5111629;28;20044;-39
2022/07/08 05:17:38;;;;;;;0.10;0.10;;;;;;;22.09;52.52;102679.38;5111439;28;20074;-38
2022/07/08 05:20:06;;;;;;;0.10;0.10;;;;;;;22.10;52.45;102678.28;5131356;28;20073;-39
2022/07/08 05:22:31;;;;;;;0.10;0.10;;;;;;;22.11;52.36;102681.91;5131327;28;20167;-39
2022/07/08 05:24:57;;;;;;;0.10;0.10;;;;;;;22.11;52.37;102684.69;5112535;28;20043;-38
2022/07/08 05:27:23;;;;;;;0.10;0.10;;;;;;;22.09;52.57;102679.38;5130107;28;20582;-38
2022/07/08 05:29:48;;;;;;;0.10;0.10;;;;;;;22.09;52.37;102676.59;5095626;28;20439;-37
2022/07/08 05:32:14;;;;;;;0.10;0.10;;;;;;;22.09;52.45;102686.88;5130530;28;20139;-38
2022/07/08 05:34:41;;;;;;;0.10;0.10;;;;;;;22.08;52.47;102679.66;5128043;28;20096;-38
2022/07/08 05:37:08;;;;;;;0.10;0.10;;;;;;;22.09;52.52;102689.66;5129922;28;20071;-39
2022/07/08 05:39:34;;;;;;;0.10;0.10;;;;;;;22.09;52.42;102686.88;5112035;28;20461;-37
2022/07/08 05:41:59;;;;;;;0.10;0.10;;;;;;;22.09;52.53;102692.41;5131145;28;20055;-38
2022/07/08 05:44:25;;;;;;;0.10;0.10;;;;;;;22.09;52.40;102692.41;5128696;27;20046;-34
2022/07/08 05:46:50;;;;;;;0.10;0.10;;;;;;;22.09;52.42;102690.47;5130722;28;20039;-37
2022/07/08 05:49:16;;;;;;;0.10;0.10;;;;;;;22.07;52.39;102687.13;5128821;27;20101;-38
2022/07/08 05:51:42;;;;;;;0.10;0.10;;;;;;;22.09;52.47;102684.09;5129328;28;20137;-38
2022/07/08 05:54:07;;;;;;;0.10;0.10;;;;;;;22.08;52.20;102687.97;5129941;28;20473;-38
2022/07/08 05:56:33;;;;;;;0.10;0.10;;;;;;;22.07;52.50;102687.13;5128473;28;20419;-37
2022/07/08 05:59:00;;;;;;;0.10;0.10;;;;;;;22.08;52.39;102685.19;5112542;28;20043;-37
2022/07/08 06:01:26;;;;;;;0.10;0.10;;;;;;;22.09;52.36;102689.66;5130277;28;20595;-38
2022/07/08 06:03:51;;;;;;;0.10;0.10;;;;;;;22.08;52.50;102696.28;5130601;28;20494;-38
2022/07/08 06:06:17;;;;;;;0.10;0.10;;;;;;;22.09;52.40;102695.19;5129516;28;20084;-38
2022/07/08 06:08:43;;;;;;;0.10;0.10;;;;;;;22.09;52.51;102696.03;5128831;28;20047;-39
2022/07/08 06:11:08;;;;;;;0.10;0.10;;;;;;;22.08;52.36;102708.22;5130519;28;20039;-38
2022/07/08 06:13:34;;;;;;;0.10;0.10;;;;;;;22.08;52.39;102702.69;5129352;28;20119;-38
2022/07/08 06:16:00;;;;;;;0.10;0.10;;;;;;;22.10;52.39;102699.63;5129288;28;20138;-37
2022/07/08 06:18:26;;;;;;;0.10;0.10;;;;;;;22.10;52.43;102700.47;5128713;28;20046;-39
2022/07/08 06:20:52;;;;;;;0.10;0.10;;;;;;;22.08;52.21;102699.91;5130009;28;20379;-38
2022/07/08 06:23:17;;;;;;;0.10;0.10;;;;;;;22.09;52.44;102704.34;5129779;28;20111;-37
2022/07/08 06:25:43;;;;;;;0.10;0.10;;;;;;;22.10;52.38;102710.75;5111811;28;20501;-37
2022/07/08 06:28:09;;;;;;;0.10;0.10;;;;;;;22.10;52.55;102707.97;5128978;28;20106;-38
2022/07/08 06:30:34;;;;;;;0.10;0.10;;;;;;;22.10;52.39;102707.97;5128095;28;20401;-35
2022/07/08 06:33:00;;;;;;;0.10;0.10;;;;;;;22.12;52.30;102719.66;5128051;28;20138;-37
2022/07/08 06:35:26;;;;;;;0.10;0.10;;;;;;;22.11;52.28;102721.59;5129770;28;20315;-38
2022/07/08 06:37:53;;;;;;;0.10;0.10;;;;;;;22.11;52.29;102713.28;5128606;28;20078;-38
2022/07/08 06:40:21;;;;;;;0.10;0.10;;;;;;;22.10;52.35;102719.91;5129482;28;20075;-38
2022/07/08 06:42:48;;;;;;;0.10;0.10;;;;;;;22.08;52.43;102724.03;5110734;28;20078;-39
2022/07/08 06:45:14;;;;;;;0.10;0.10;;;;;;;22.09;52.44;102715.44;5110084;28;20043;-37
2022/07/08 06:47:39;;;;;;;0.10;0.10;;;;;;;22.09;52.46;102717.38;5109834;28;20059;-35
2022/07/08 06:50:06;;;;;;;0.10;0.10;;;;;;;22.10;52.34;102716.28;5111675;28;20055;-38
2022/07/08 06:52:32;;;;;;;0.10;0.10;;;;;;;22.11;52.39;102718.00;5129476;28;20071;-38
2022/07/08 06:54:59;;;;;;;0.10;0.10;;;;;;;22.09;52.45;102723.78;5129919;28;20062;-39
2022/07/08 06:57:25;;;;;;;0.10;0.10;;;;;;;22.08;52.46;102738.75;5128619;28;20065;-38
2022/07/08 06:59:51;;;;;;;0.10;0.10;;;;;;;22.09;52.35;102723.78;5129826;28;20036;-37
2022/07/08 07:02:36;;;;;;;0.10;0.10;;;;;;;22.09;52.29;102729.31;5101096;28;20043;-39
2022/07/08 07:05:03;;;;;;;0.10;0.10;;;;;;;22.08;52.35;102733.19;5133561;28;20096;-37
2022/07/08 07:07:28;;;;;;;0.10;0.10;;;;;;;22.09;52.32;102737.66;5131375;28;20486;-37
2022/07/08 07:09:54;;;;;;;0.10;0.10;;;;;;;22.11;52.36;102738.25;5132828;28;20049;-38
2022/07/08 07:12:20;;;;;;;0.10;0.10;;;;;;;22.09;52.28;102739.59;5115019;28;20078;-39
2022/07/08 07:14:46;;;;;;;0.10;0.10;;;;;;;22.09;52.32;102734.03;5132211;28;20042;-38
2022/07/08 07:17:11;;;;;;;0.10;0.10;;;;;;;22.09;52.31;102739.59;5130761;28;20047;-39
2022/07/08 07:19:37;;;;;;;0.10;0.10;;;;;;;22.08;52.36;102738.75;5132133;28;20088;-38
2022/07/08 07:22:03;;;;;;;0.10;0.10;;;;;;;22.09;52.45;102739.59;5129654;28;20046;-38
2022/07/08 07:24:29;;;;;;;0.10;0.10;;;;;;;22.10;52.28;102746.81;5132734;28;20082;-37
2022/07/08 07:26:55;;;;;;;0.10;0.10;;;;;;;22.09;52.30;102751.53;5132040;28;20058;-38
2022/07/08 07:29:21;;;;;;;0.10;0.10;;;;;;;22.10;52.32;102747.63;5111148;28;20409;-38
2022/07/08 07:31:46;;;;;;;0.10;0.10;;;;;;;22.09;52.30;102745.97;5131701;28;20093;-38
2022/07/08 07:34:12;;;;;;;0.10;0.10;;;;;;;22.08;52.24;102747.06;5131599;28;20035;-39
2022/07/08 07:36:38;;;;;;;0.10;0.10;;;;;;;22.08;52.39;102752.63;5112742;28;20051;-36
2022/07/08 07:39:03;;;;;;;0.10;0.10;;;;;;;22.08;52.35;102749.84;5130523;28;20047;-38
2022/07/08 07:41:29;;;;;;;0.10;0.10;;;;;;;22.09;52.32;102745.97;5131547;28;20134;-38
2022/07/08 07:43:55;;;;;;;0.20;0.20;;;;;;;22.07;52.39;102742.63;5132225;28;20049;-38
2022/07/08 07:46:20;;;;;;;0.10;0.10;;;;;;;22.08;52.40;102737.91;5111390;28;20055;-38
2022/07/08 07:48:46;;;;;;;0.10;0.10;;;;;;;22.08;52.35;102741.53;5133208;28;20043;-38
2022/07/08 07:51:12;;;;;;;0.10;0.10;;;;;;;22.09;52.52;102745.13;5131281;28;20042;-38
2022/07/08 07:53:38;;;;;;;0.10;0.10;;;;;;;22.08;52.27;102741.53;5113974;28;20416;-38
2022/07/08 07:56:04;;;;;;;0.10;0.10;;;;;;;22.07;52.30;102737.06;5131565;28;20058;-38
2022/07/08 07:58:30;;;;;;;0.10;0.10;;;;;;;22.09;52.29;102734.03;5128578;28;20071;-38
2022/07/08 08:00:56;;;;;;;0.10;0.10;;;;;;;22.09;52.28;102740.41;5130146;28;20040;-38
2022/07/08 08:03:22;;;;;;;0.10;0.10;;;;;;;22.09;52.35;102745.13;5130984;28;20080;-38
2022/07/08 08:05:48;;;;;;;0.10;0.10;;;;;;;22.09;52.18;102747.91;5112534;28;20393;-38
2022/07/08 08:08:13;;;;;;;0.10;0.10;;;;;;;22.09;52.22;102748.75;5111502;28;20220;-38
2022/07/08 08:10:39;;;;;;;0.10;0.10;;;;;;;22.08;52.29;102751.78;5130575;28;20495;-38
2022/07/08 08:13:05;;;;;;;0.10;0.10;;;;;;;22.09;52.30;102756.22;5112439;28;20039;-37
2022/07/08 08:15:31;;;;;;;0.10;0.10;;;;;;;22.08;52.31;102758.16;5130863;28;20051;-39
2022/07/08 08:17:57;;;;;;;0.10;0.10;;;;;;;22.07;52.20;102758.44;5130978;28;20491;-38
2022/07/08 08:20:25;;;;;;;0.10;0.10;;;;;;;22.08;52.31;102754.56;5130665;28;20047;-38
2022/07/08 08:22:52;;;;;;;0.10;0.10;;;;;;;22.09;52.24;102754.28;5128835;28;20083;-38
2022/07/08 08:25:37;;;;;;;0.10;0.10;;;;;;;22.09;52.36;102751.53;5103018;28;20047;-39
2022/07/08 08:28:04;;;;;;;0.10;0.10;;;;;;;22.08;52.26;102755.41;5130233;28;20427;-36
2022/07/08 08:30:30;;;;;;;0.10;0.10;;;;;;;22.08;52.29;102749.00;5095795;28;20514;-37
2022/07/08 08:32:55;;;;;;;0.10;0.10;;;;;;;22.07;52.28;102747.34;5130464;28;20073;-37
2022/07/08 08:35:21;;;;;;;0.10;0.10;;;;;;;22.08;52.35;102757.34;5132966;28;20047;-38
2022/07/08 08:37:47;;;;;;;0.10;0.10;;;;;;;22.05;52.31;102753.97;5126075;28;20059;-37
2022/07/08 08:40:13;;;;;;;0.10;0.10;;;;;;;22.08;52.28;102754.56;5095764;28;20071;-37
2022/07/08 08:42:40;;;;;;;0.10;0.10;;;;;;;22.07;52.20;102750.13;5095826;28;20474;-38
2022/07/08 08:45:06;;;;;;;0.10;0.10;;;;;;;22.09;52.21;102745.13;5113744;28;20062;-38
2022/07/08 08:47:34;;;;;;;0.10;0.10;;;;;;;22.08;52.23;102737.91;5110655;28;20494;-37
2022/07/08 08:50:53;;;;;;;0.10;0.10;;;;;;;22.07;52.25;102737.06;5130608;28;20093;-37
2022/07/08 08:52:49;;;;;;;0.10;0.10;;;;;;;22.08;52.35;102743.47;5101779;28;20356;-37
2022/07/08 08:55:24;;;;;;;0.10;0.10;;;;;;;22.08;52.27;102738.75;5129721;28;20487;-37
2022/07/08 08:57:50;;;;;;;0.10;0.10;;;;;;;22.07;52.34;102744.56;5129230;28;20126;-37
2022/07/08 09:00:16;;;;;;;0.10;0.10;;;;;;;22.08;52.26;102741.53;5130771;28;20082;-37
2022/07/08 09:02:41;;;;;;;0.10;0.10;;;;;;;22.08;52.27;102743.47;5131771;28;20063;-37
2022/07/08 09:05:07;;;;;;;0.10;0.10;;;;;;;22.06;52.29;102743.69;5131975;28;20074;-37
2022/07/08 09:07:33;;;;;;;0.10;0.10;;;;;;;22.08;52.34;102741.53;5126567;28;20073;-37
2022/07/08 09:10:00;;;;;;;0.10;0.10;;;;;;;22.07;52.31;102750.94;5131017;28;20044;-37
2022/07/08 09:12:26;;;;;;;0.10;0.10;;;;;;;22.08;52.21;102757.34;5129960;28;20047;-36
2022/07/08 09:14:54;;;;;;;0.10;0.10;;;;;;;22.04;52.44;102757.00;5112792;28;20433;-37
2022/07/08 09:17:21;;;;;;;0.10;0.10;;;;;;;22.04;52.29;102745.91;5110960;28;20130;-37
2022/07/08 09:19:48;;;;;;;0.10;0.10;;;;;;;22.07;52.45;102747.34;5132048;28;20066;-39
2022/07/08 09:22:17;;;;;;;0.10;0.10;;;;;;;22.07;52.34;102745.41;5131341;28;20435;-38
2022/07/08 09:24:43;;;;;;;0.10;0.10;;;;;;;22.06;52.22;102740.94;5111918;28;20067;-38
2022/07/08 09:27:10;;;;;;;0.10;0.10;;;;;;;22.07;52.34;102747.34;5129632;28;20456;-39
2022/07/08 09:29:57;;;;;;;0.10;0.10;;;;;;;22.07;52.25;102744.56;5128317;28;20509;-37
2022/07/08 09:32:23;;;;;;;0.10;0.10;;;;;;;22.07;52.46;102755.66;5115990;28;20047;-37
2022/07/08 09:34:48;;;;;;;0.10;0.10;;;;;;;22.05;52.26;102742.03;5111067;28;20046;-38
2022/07/08 09:37:16;;;;;;;0.13;0.13;;;;;;;22.06;52.38;102740.94;5129601;28;20057;-37
2022/07/08 09:39:42;;;;;;;0.10;0.10;;;;;;;22.07;52.16;102734.31;5128774;28;20445;-39
2022/07/08 09:42:09;;;;;;;0.10;0.10;;;;;;;22.07;52.41;102739.84;5112599;28;20568;-37
2022/07/08 09:44:35;;;;;;;0.10;0.10;;;;;;;22.09;52.46;102731.25;5129176;28;20047;-37
2022/07/08 09:47:08;;;;;;;0.10;0.10;;;;;;;22.09;52.45;102734.88;5110124;28;20077;-38
2022/07/08 09:49:34;;;;;;;0.10;0.10;;;;;;;22.09;52.34;102737.66;5131000;28;20064;-37
2022/07/08 09:52:00;;;;;;;0.10;0.10;;;;;;;22.08;52.29;102743.47;5113004;28;20043;-38
2022/07/08 09:54:27;;;;;;;0.10;0.10;;;;;;;22.07;52.34;102737.06;5110980;28;20103;-37
2022/07/08 09:57:02;;;;;;;0.10;0.10;;;;;;;22.05;52.38;102733.72;5128691;28;20397;-37
2022/07/08 09:59:28;;;;;;;0.10;0.10;;;;;;;22.07;52.46;102737.06;5111493;28;20075;-36
2022/07/08 10:01:54;;;;;;;0.10;0.10;;;;;;;22.08;52.18;102740.69;5130372;28;20078;-36
2022/07/08 10:04:22;;;;;;;0.10;0.10;;;;;;;22.08;52.35;102726.81;5129530;28;20047;-38
2022/07/08 10:06:48;;;;;;;0.10;0.10;;;;;;;22.07;52.21;102737.06;5126109;28;20150;-39
2022/07/08 10:09:14;;;;;;;0.20;0.20;;;;;;;22.05;52.45;102730.94;5128995;28;20051;-36
2022/07/08 10:11:39;;;;;;;0.10;0.10;;;;;;;22.07;52.45;102725.16;5112553;28;20100;-38
2022/07/08 10:14:05;;;;;;;0.10;0.10;;;;;;;22.04;52.21;102732.88;5124676;28;20051;-38
2022/07/08 10:16:33;;;;;;;0.10;0.10;;;;;;;22.05;52.20;102729.00;5109299;28;20058;-37
2022/07/08 10:19:00;;;;;;;0.10;0.10;;;;;;;22.04;52.42;102730.09;5130510;28;20039;-38
2022/07/08 10:21:26;;;;;;;0.10;0.10;;;;;;;22.06;52.22;102729.81;5111507;28;20070;-38
2022/07/08 10:23:53;;;;;;;0.10;0.10;;;;;;;22.05;52.30;102729.00;5131752;28;20139;-36
2022/07/08 10:26:40;;;;;;;0.10;0.10;;;;;;;22.05;52.15;102720.66;5128722;27;20533;-38
2022/07/08 10:29:08;;;;;;;0.10;0.10;;;;;;;22.07;52.27;102731.53;5115007;28;20180;-38
2022/07/08 10:31:46;;;;;;;0.10;0.10;;;;;;;22.05;52.21;102729.00;5112317;28;20076;-38
2022/07/08 10:34:13;;;;;;;0.10;0.10;;;;;;;22.05;52.20;102733.72;5126985;28;20075;-38
2022/07/08 10:36:54;;;;;;;0.10;0.10;;;;;;;22.06;52.18;102729.81;5128155;27;20051;-38
2022/07/08 10:39:25;;;;;;;0.10;0.10;;;;;;;22.05;52.41;102730.94;5110885;28;20512;-38
2022/07/08 10:42:07;;;;;;;0.10;0.10;;;;;;;22.05;52.16;102731.75;5111998;28;20067;-39
2022/07/08 10:44:48;;;;;;;0.10;0.10;;;;;;;22.03;52.34;102728.44;5109184;28;20405;-38
2022/07/08 10:47:16;;;;;;;0.10;0.10;;;;;;;22.04;52.22;102724.56;5108355;28;20047;-38
2022/07/08 10:49:44;;;;;;;0.10;0.10;;;;;;;22.04;52.30;102726.50;5107517;28;20090;-37
2022/07/08 10:52:10;;;;;;;;;;;;;;;22.07;52.34;102737.06;5087611;28;20071;-39
2022/07/08 10:54:37;;;;;;;0.10;0.10;;;;;;;22.08;52.31;102737.91;5091540;28;19965;-39
2022/07/08 10:57:16;;;;;;;0.10;0.10;;;;;;;22.03;52.29;102731.19;5091193;28;20067;-37
2022/07/08 11:00:01;;;;;;;0.10;0.10;;;;;;;22.05;52.57;102723.44;5092496;28;20067;-38
2022/07/08 11:02:27;;;;;;;0.10;0.10;;;;;;;22.03;52.23;102725.66;5094880;28;20083;-39
2022/07/08 11:04:53;;;;;;;0.10;0.10;;;;;;;22.04;52.25;102721.78;5108463;28;20047;-38
2022/07/08 11:12:39;;;;;;;0.10;0.10;;;;;;;22.05;52.30;102715.13;5157578;27;20202;-38
2022/07/08 11:15:09;;;;;;;0.10;0.10;;;;;;;22.05;52.14;102714.28;5157375;27;20496;-38
2022/07/08 11:17:36;;;;;;;0.10;0.10;;;;;;;22.03;52.30;102709.00;5130604;27;20510;-38
2022/07/08 11:20:07;;;;;;;0.10;0.10;;;;;;;22.03;52.30;102714.56;5157606;27;20096;-37
2022/07/08 11:22:34;;;;;;;0.10;0.10;;;;;;;22.05;52.58;102720.66;5138786;27;20057;-39
2022/07/08 11:25:01;;;;;;;0.08;0.08;;;;;;;22.08;52.20;102718.50;5137816;27;20039;-37
2022/07/08 11:27:28;;;;;;;0.10;0.10;;;;;;;22.07;52.29;102716.81;5158796;27;20085;-39